Time;durP1;ratioP1;P1;durP2;ratioP2;P2;SDS_P1;SDS_P2;PMS_P1;PMS_P2;Temp;Humidity;BMP_temperature;BMP_pressure;BME280_temperature;BME280_humidity;BME280_pressure;Samples;Min_cycle;Max_cycle;Signal;HPM_P1;HPM_P2
2023/03/27 00:00:40;;;;;;;7.82;5.50;;;;;;;1.56;100.00;95304.25;4954877;29;20023;-66
2023/03/27 00:03:05;;;;;;;3.75;3.38;;;;;;;1.56;100.00;95314.63;4944312;29;20027;-65
2023/03/27 00:05:31;;;;;;;2.42;2.33;;;;;;;1.51;100.00;95322.69;4956297;29;20556;-66
2023/03/27 00:07:56;;;;;;;5.43;3.45;;;;;;;1.60;100.00;95331.66;4949296;29;20050;-65
2023/03/27 00:10:23;;;;;;;4.68;3.72;;;;;;;1.67;100.00;95348.56;4944694;29;20043;-65
2023/03/27 00:12:49;;;;;;;62.90;28.45;;;;;;;1.67;100.00;95343.34;4955301;29;20036;-66
2023/03/27 00:15:16;;;;;;;3.63;2.47;;;;;;;1.56;100.00;95346.63;4952351;29;20407;-66
2023/03/27 00:17:50;;;;;;;5.82;4.05;;;;;;;1.59;100.00;95355.97;4944681;29;20432;-66
2023/03/27 00:20:20;;;;;;;1.95;1.85;;;;;;;1.76;100.00;95361.88;4947652;29;20027;-66
2023/03/27 00:22:47;;;;;;;1.63;1.52;;;;;;;1.75;100.00;95360.22;4946510;29;20087;-66
2023/03/27 00:25:12;;;;;;;1.80;1.70;;;;;;;1.73;100.00;95360.28;4948834;29;20066;-65
2023/03/27 00:27:38;;;;;;;1.65;1.55;;;;;;;1.70;100.00;95369.13;4950658;29;20051;-66
2023/03/27 00:30:05;;;;;;;1.70;1.60;;;;;;;1.64;100.00;95368.66;4952066;29;20039;-65
2023/03/27 00:32:31;;;;;;;20.92;10.60;;;;;;;1.63;100.00;95373.00;4927936;29;20019;-66
2023/03/27 00:34:56;;;;;;;20.27;10.35;;;;;;;1.63;100.00;95380.78;4942383;29;20024;-65
2023/03/27 00:37:21;;;;;;;5.18;3.40;;;;;;;1.71;100.00;95386.34;4951943;29;20066;-65
2023/03/27 00:39:49;;;;;;;3.22;2.80;;;;;;;1.82;100.00;95388.28;4945769;29;20175;-65
2023/03/27 00:42:21;;;;;;;3.08;2.70;;;;;;;1.82;100.00;95400.41;4946287;29;20044;-66
2023/03/27 00:44:48;;;;;;;4.50;3.40;;;;;;;1.82;100.00;95401.25;4950568;29;20427;-66
2023/03/27 00:47:14;;;;;;;6.70;4.05;;;;;;;1.82;100.00;95408.19;4951790;28;20510;-65
2023/03/27 00:49:40;;;;;;;3.78;3.47;;;;;;;1.88;100.00;95412.19;4949215;29;20031;-65
2023/03/27 00:52:07;;;;;;;8.13;5.72;;;;;;;1.92;100.00;95419.69;4953651;29;20074;-65
2023/03/27 00:54:38;;;;;;;11.55;6.82;;;;;;;1.96;100.00;95418.56;4954313;29;20043;-65
2023/03/27 00:57:08;;;;;;;6.72;4.40;;;;;;;2.00;100.00;95420.03;4945929;28;20032;-65
2023/03/27 00:59:39;;;;;;;2.90;2.60;;;;;;;1.91;100.00;95417.19;4952802;29;20135;-66
2023/03/27 01:02:07;;;;;;;57.20;37.35;;;;;;;1.99;100.00;95420.16;4942120;29;20075;-66
2023/03/27 01:04:34;;;;;;;4.70;4.18;;;;;;;2.12;100.00;95415.03;4957228;29;20118;-65
2023/03/27 01:07:02;;;;;;;3.00;2.70;;;;;;;2.11;100.00;95418.56;4947816;29;20063;-66
2023/03/27 01:09:28;;;;;;;3.25;2.35;;;;;;;2.03;100.00;95411.25;4952586;29;20046;-66
2023/03/27 01:12:12;;;;;;;2.25;2.15;;;;;;;1.92;100.00;95411.91;4951119;29;20039;-66
2023/03/27 01:15:13;;;;;;;2.83;2.63;;;;;;;1.99;100.00;95412.38;4951627;29;20019;-66
2023/03/27 01:18:03;;;;;;;4.43;4.03;;;;;;;1.98;100.00;95414.13;4910000;29;20035;-65
2023/03/27 01:21:04;;;;;;;9.70;8.88;;;;;;;2.08;100.00;95409.19;4944770;29;20059;-66
2023/03/27 01:24:19;;;;;;;4.45;4.05;;;;;;;2.21;100.00;95410.97;4949824;29;20492;-66
2023/03/27 01:27:06;;;;;;;2.78;2.58;;;;;;;2.31;100.00;95406.88;4908633;29;20540;-66
2023/03/27 01:29:37;;;;;;;1.95;1.85;;;;;;;2.23;100.00;95409.97;4953071;29;20089;-66
2023/03/27 01:32:06;;;;;;;2.00;1.80;;;;;;;2.24;100.00;95410.81;4949354;29;20452;-66
2023/03/27 01:34:47;;;;;;;1.88;1.77;;;;;;;2.23;100.00;95409.16;4942235;29;20027;-65
2023/03/27 01:37:34;;;;;;;7.47;6.88;;;;;;;2.21;100.00;95413.59;4942543;29;20118;-66
2023/03/27 01:40:12;;;;;;;4.10;3.70;;;;;;;2.25;100.00;95415.06;4943828;29;20090;-65
2023/03/27 01:42:42;;;;;;;3.70;3.40;;;;;;;2.28;100.00;95409.69;4949544;29;20031;-65
2023/03/27 01:45:18;;;;;;;4.43;4.03;;;;;;;2.26;100.00;95411.56;4947034;29;20047;-66
2023/03/27 01:47:55;;;;;;;4.25;3.95;;;;;;;2.34;100.00;95416.25;4946213;29;20043;-66
2023/03/27 01:50:49;;;;;;;2.00;1.90;;;;;;;2.45;100.00;95412.97;4950348;29;20046;-66
2023/03/27 01:53:19;;;;;;;1.88;1.70;;;;;;;2.45;100.00;95397.38;4947077;29;20085;-67
2023/03/27 01:55:50;;;;;;;2.15;2.05;;;;;;;2.49;100.00;95399.66;4956292;29;20027;-67
2023/03/27 01:58:20;;;;;;;1.70;1.60;;;;;;;2.57;100.00;95399.16;4949146;29;20027;-65
2023/03/27 02:00:51;;;;;;;1.60;1.50;;;;;;;2.57;100.00;95394.81;4942560;29;20417;-65
2023/03/27 02:03:22;;;;;;;2.33;2.22;;;;;;;2.61;100.00;95398.03;4949586;29;20038;-67
2023/03/27 02:05:57;;;;;;;4.28;3.22;;;;;;;2.61;100.00;95402.41;4944836;29;20527;-65
2023/03/27 02:08:41;;;;;;;1.95;1.80;;;;;;;2.69;100.00;95406.19;4946387;28;20472;-67
2023/03/27 02:11:06;;;;;;;4.53;4.22;;;;;;;2.66;100.00;95405.53;4939175;29;20064;-67
2023/03/27 02:13:53;;;;;;;2.78;2.65;;;;;;;2.69;100.00;95403.56;4946384;29;20549;-68
2023/03/27 02:16:23;;;;;;;3.33;3.13;;;;;;;2.73;100.00;95414.59;4949255;29;20078;-68
2023/03/27 02:18:56;;;;;;;3.22;2.92;;;;;;;2.72;100.00;95424.16;4937157;29;20395;-68
2023/03/27 02:21:22;;;;;;;2.30;2.20;;;;;;;2.77;100.00;95429.06;4946052;29;20464;-65
2023/03/27 02:23:48;;;;;;;1.52;1.52;;;;;;;2.78;100.00;95440.28;4951136;29;20038;-65
2023/03/27 02:26:13;;;;;;;3.72;3.42;;;;;;;2.92;100.00;95447.19;4952767;29;20075;-67
2023/03/27 02:29:10;;;;;;;5.90;4.50;;;;;;;3.16;100.00;95452.53;4957849;29;20019;-68
2023/03/27 02:31:43;;;;;;;3.38;3.08;;;;;;;2.98;100.00;95459.78;4956608;28;20118;-67
2023/03/27 02:34:49;;;;;;;2.10;2.00;;;;;;;2.99;100.00;95451.88;4955705;29;20035;-67
2023/03/27 02:37:16;;;;;;;2.03;1.92;;;;;;;3.04;100.00;95458.53;4952593;29;20412;-68
2023/03/27 02:40:00;;;;;;;3.92;2.78;;;;;;;2.84;100.00;95465.88;4950867;29;20038;-67
2023/03/27 02:42:57;;;;;;;3.40;3.10;;;;;;;2.89;100.00;95470.78;4944410;29;20051;-68
2023/03/27 02:45:53;;;;;;;3.72;2.92;;;;;;;2.78;100.00;95464.53;4953266;29;20031;-67
2023/03/27 02:48:34;;;;;;;3.63;2.35;;;;;;;2.76;100.00;95474.19;4953339;29;20122;-67
2023/03/27 02:51:06;;;;;;;2.35;2.13;;;;;;;2.79;100.00;95478.34;4953362;29;20043;-68
2023/03/27 02:53:37;;;;;;;2.17;1.98;;;;;;;2.79;100.00;95491.34;4950469;29;20488;-68
2023/03/27 02:56:05;;;;;;;3.75;3.45;;;;;;;2.84;100.00;95497.94;4944350;29;20034;-67
2023/03/27 02:58:41;;;;;;;3.75;3.45;;;;;;;2.84;100.00;95490.13;4955217;29;20023;-67
2023/03/27 03:01:08;;;;;;;6.07;5.47;;;;;;;2.85;100.00;95509.16;4955904;29;20039;-68
2023/03/27 03:03:47;;;;;;;5.03;4.00;;;;;;;2.95;100.00;95507.66;4955005;29;20078;-67
2023/03/27 03:06:13;;;;;;;4.40;4.00;;;;;;;2.96;100.00;95498.06;4949897;29;20027;-67
2023/03/27 03:08:39;;;;;;;2.20;2.10;;;;;;;2.94;100.00;95502.53;4955633;29;20480;-67
2023/03/27 03:11:09;;;;;;;5.18;4.78;;;;;;;2.98;100.00;95517.84;4955430;29;20042;-67
2023/03/27 03:13:35;;;;;;;5.70;4.57;;;;;;;2.98;100.00;95511.78;4950119;29;20035;-67
2023/03/27 03:16:00;;;;;;;3.13;2.92;;;;;;;2.98;100.00;95517.84;4948857;29;20099;-67
2023/03/27 03:18:26;;;;;;;2.55;2.33;;;;;;;3.00;100.00;95525.56;4950201;29;20601;-67
2023/03/27 03:20:53;;;;;;;2.53;2.33;;;;;;;2.98;100.00;95535.19;4943999;29;20042;-67
2023/03/27 03:23:20;;;;;;;5.25;2.97;;;;;;;2.96;100.00;95524.06;4951532;29;20524;-67
2023/03/27 03:25:46;;;;;;;2.78;2.60;;;;;;;2.95;100.00;95523.25;4950666;29;20038;-67
2023/03/27 03:28:12;;;;;;;14.13;12.65;;;;;;;2.97;100.00;95525.72;4952536;29;20419;-67
2023/03/27 03:30:42;;;;;;;5.53;3.90;;;;;;;3.03;100.00;95540.13;4951791;29;20031;-67
2023/03/27 03:33:08;;;;;;;4.70;4.22;;;;;;;3.04;100.00;95541.78;4956018;29;20110;-68
2023/03/27 03:35:34;;;;;;;2.45;2.25;;;;;;;3.05;100.00;95544.28;4955306;29;20123;-68
2023/03/27 03:38:00;;;;;;;2.22;2.05;;;;;;;3.01;100.00;95543.66;4948310;29;20399;-67
2023/03/27 03:40:25;;;;;;;4.18;3.95;;;;;;;3.00;100.00;95541.16;4956265;29;20041;-68
2023/03/27 03:42:51;;;;;;;5.10;4.70;;;;;;;3.12;100.00;95548.16;4947731;29;20397;-68
2023/03/27 03:45:18;;;;;;;4.35;3.95;;;;;;;3.17;100.00;95550.47;4956611;29;20054;-68
2023/03/27 03:47:45;;;;;;;2.05;1.95;;;;;;;3.12;100.00;95555.97;4952298;29;20584;-67
2023/03/27 03:50:12;;;;;;;1.67;1.58;;;;;;;3.11;100.00;95561.28;4950809;29;20052;-67
2023/03/27 03:52:38;;;;;;;4.95;2.03;;;;;;;3.06;100.00;95560.72;4951884;29;20071;-67
2023/03/27 03:55:04;;;;;;;1.52;1.40;;;;;;;3.02;100.00;95573.13;4948696;29;20027;-67
2023/03/27 03:57:30;;;;;;;1.40;1.40;;;;;;;3.04;100.00;95573.84;4955200;29;20090;-68
2023/03/27 03:59:57;;;;;;;1.60;1.35;;;;;;;3.07;100.00;95568.44;4955135;29;20035;-67
2023/03/27 04:02:29;;;;;;;1.70;1.60;;;;;;;3.10;100.00;95581.25;4958459;29;20046;-68
2023/03/27 04:04:58;;;;;;;1.95;1.85;;;;;;;3.07;100.00;95583.19;4948453;29;20040;-67
2023/03/27 04:07:30;;;;;;;4.05;2.80;;;;;;;3.28;100.00;95581.81;4946105;29;20064;-67
2023/03/27 04:09:55;;;;;;;2.85;2.63;;;;;;;3.17;100.00;95584.28;4943692;29;20039;-67
2023/03/27 04:12:21;;;;;;;5.95;3.35;;;;;;;3.02;100.00;95596.53;4944850;29;20050;-67
2023/03/27 04:14:46;;;;;;;5.22;3.17;;;;;;;3.07;100.00;95604.00;4949529;29;20099;-68
2023/03/27 04:17:11;;;;;;;3.80;3.33;;;;;;;3.06;100.00;95603.19;4947345;29;20035;-67
2023/03/27 04:19:37;;;;;;;2.80;2.60;;;;;;;3.25;100.00;95604.63;4945911;29;20127;-67
2023/03/27 04:22:03;;;;;;;2.60;2.40;;;;;;;3.35;100.00;95612.66;4948051;29;20035;-67
2023/03/27 04:24:31;;;;;;;3.17;2.83;;;;;;;3.17;100.00;95609.47;4958045;29;20484;-67
2023/03/27 04:27:00;;;;;;;3.45;3.13;;;;;;;3.15;100.00;95627.78;4948226;29;20059;-67
2023/03/27 04:29:29;;;;;;;3.85;3.22;;;;;;;3.12;100.00;95638.38;4953085;29;20090;-67
2023/03/27 04:31:57;;;;;;;3.58;3.28;;;;;;;3.30;100.00;95633.78;4953050;28;20616;-68
2023/03/27 04:34:24;;;;;;;3.42;3.13;;;;;;;3.20;100.00;95630.91;4957874;29;20106;-67
2023/03/27 04:36:50;;;;;;;2.22;2.05;;;;;;;3.27;100.00;95633.97;4955884;29;20499;-67
2023/03/27 04:39:16;;;;;;;2.72;2.53;;;;;;;3.09;100.00;95634.22;4956656;29;20085;-67
2023/03/27 04:41:48;;;;;;;3.30;3.00;;;;;;;3.08;100.00;95632.53;4950176;29;20024;-67
2023/03/27 04:44:16;;;;;;;5.10;3.13;;;;;;;3.04;100.00;95638.03;4952471;29;20115;-67
2023/03/27 04:46:47;;;;;;;2.60;2.40;;;;;;;3.07;100.00;95630.88;4951284;29;20113;-67
2023/03/27 04:49:13;;;;;;;3.45;3.08;;;;;;;3.04;100.00;95632.81;4943856;29;20039;-67
2023/03/27 04:51:40;;;;;;;5.60;5.05;;;;;;;3.03;100.00;95647.59;4941137;29;20027;-67
2023/03/27 04:54:06;;;;;;;3.17;2.97;;;;;;;2.99;100.00;95648.75;4950984;29;20031;-67
2023/03/27 04:56:33;;;;;;;5.55;3.10;;;;;;;2.92;100.00;95642.22;4952827;29;20020;-67
2023/03/27 04:59:00;;;;;;;3.17;2.97;;;;;;;2.95;100.00;95642.03;4957540;29;20038;-68
2023/03/27 05:01:26;;;;;;;5.28;3.25;;;;;;;2.99;100.00;95648.75;4957172;29;20036;-67
2023/03/27 05:03:52;;;;;;;3.63;3.33;;;;;;;3.03;100.00;95650.22;4957660;29;20031;-68
2023/03/27 05:06:18;;;;;;;3.20;3.00;;;;;;;3.05;100.00;95655.31;4952766;29;20020;-67
2023/03/27 05:08:43;;;;;;;3.60;3.30;;;;;;;3.06;100.00;95655.22;4939433;29;20022;-67
2023/03/27 05:11:09;;;;;;;3.92;3.63;;;;;;;3.08;100.00;95657.69;4941441;29;20043;-67
2023/03/27 05:13:35;;;;;;;3.42;3.00;;;;;;;3.08;100.00;95657.69;4956942;29;20408;-68
2023/03/27 05:16:01;;;;;;;3.55;3.22;;;;;;;3.07;100.00;95654.28;4956863;29;20034;-68
2023/03/27 05:18:30;;;;;;;4.97;3.50;;;;;;;3.06;100.00;95657.81;4956644;29;20070;-67
2023/03/27 05:20:56;;;;;;;4.50;4.20;;;;;;;3.02;100.00;95671.94;4947204;29;20878;-67
2023/03/27 05:23:22;;;;;;;4.78;4.43;;;;;;;3.01;100.00;95671.09;4950210;29;20035;-68
2023/03/27 05:25:47;;;;;;;4.55;4.28;;;;;;;3.01;100.00;95668.50;4944443;29;20755;-67
2023/03/27 05:28:13;;;;;;;3.45;3.20;;;;;;;3.03;100.00;95668.41;4952410;29;20495;-67
2023/03/27 05:30:40;;;;;;;10.30;9.48;;;;;;;3.12;100.00;95675.63;4944031;29;20476;-67
2023/03/27 05:33:06;;;;;;;10.20;9.32;;;;;;;3.09;100.00;95674.97;4949261;29;20035;-67
2023/03/27 05:35:33;;;;;;;8.93;8.23;;;;;;;3.18;100.00;95683.97;4943473;29;20035;-67
2023/03/27 05:37:59;;;;;;;7.13;6.55;;;;;;;3.15;100.00;95683.25;4948873;29;20142;-67
2023/03/27 05:40:26;;;;;;;9.07;8.38;;;;;;;3.07;100.00;95690.69;4954577;29;20038;-67
2023/03/27 05:42:53;;;;;;;8.88;8.07;;;;;;;3.05;100.00;95686.50;4953968;28;20035;-67
2023/03/27 05:45:20;;;;;;;8.35;7.65;;;;;;;3.05;100.00;95692.56;4950486;29;20023;-67
2023/03/27 05:47:50;;;;;;;5.72;5.13;;;;;;;3.11;100.00;95705.19;4954684;29;20476;-68
2023/03/27 05:50:18;;;;;;;8.50;5.60;;;;;;;3.09;100.00;95703.59;4956199;29;20573;-67
2023/03/27 05:52:44;;;;;;;5.22;3.75;;;;;;;3.17;100.00;95697.91;4948389;29;20030;-67
2023/03/27 05:55:10;;;;;;;5.00;4.53;;;;;;;3.11;100.00;95705.19;4946139;29;20475;-67
2023/03/27 05:57:38;;;;;;;4.88;4.50;;;;;;;3.07;100.00;95708.91;4947189;29;20082;-65
2023/03/27 06:00:15;;;;;;;7.70;6.00;;;;;;;3.06;100.00;95714.19;4955788;29;20035;-67
2023/03/27 06:02:42;;;;;;;6.30;5.80;;;;;;;3.09;100.00;95724.41;4951672;29;20027;-68
2023/03/27 06:05:14;;;;;;;7.30;6.53;;;;;;;3.12;100.00;95725.06;4940966;29;20032;-66
2023/03/27 06:07:41;;;;;;;6.70;6.05;;;;;;;3.15;100.00;95724.88;4948996;29;20035;-67
2023/03/27 06:10:08;;;;;;;7.60;6.93;;;;;;;3.15;100.00;95717.06;4955724;29;20054;-66
2023/03/27 06:12:37;;;;;;;7.28;6.45;;;;;;;3.20;100.00;95719.38;4947343;29;20023;-67
2023/03/27 06:15:07;;;;;;;7.13;6.53;;;;;;;3.23;100.00;95724.41;4956191;29;20546;-66
2023/03/27 06:17:33;;;;;;;6.78;6.28;;;;;;;3.21;100.00;95720.22;4951127;29;20055;-66
2023/03/27 06:19:59;;;;;;;8.20;7.40;;;;;;;3.23;100.00;95716.59;4947103;29;20039;-66
2023/03/27 06:22:25;;;;;;;8.02;7.22;;;;;;;3.54;100.00;95711.22;4931318;29;20914;-66
2023/03/27 06:24:52;;;;;;;4.75;4.30;;;;;;;3.39;100.00;95719.06;4951331;29;20039;-66
2023/03/27 06:27:19;;;;;;;5.68;5.18;;;;;;;3.31;100.00;95734.31;4947212;29;20427;-67
2023/03/27 06:29:45;;;;;;;5.30;4.90;;;;;;;3.37;100.00;95731.34;4949816;29;20023;-66
2023/03/27 06:32:11;;;;;;;6.50;6.00;;;;;;;3.38;100.00;95740.81;4949796;29;20038;-66
2023/03/27 06:34:36;;;;;;;5.90;4.75;;;;;;;3.52;100.00;95733.91;4949744;29;20395;-66
2023/03/27 06:37:02;;;;;;;5.25;4.85;;;;;;;3.40;100.00;95738.94;4949873;29;20063;-66
2023/03/27 06:39:27;;;;;;;5.60;5.10;;;;;;;3.41;100.00;95738.00;4951995;29;20028;-66
2023/03/27 06:41:53;;;;;;;6.47;5.88;;;;;;;3.43;100.00;95746.59;4956109;29;20038;-66
2023/03/27 06:44:18;;;;;;;6.55;6.05;;;;;;;3.46;100.00;95745.53;4955957;29;20023;-67
2023/03/27 06:46:44;;;;;;;5.43;4.93;;;;;;;3.49;100.00;95745.34;4938634;29;20023;-67
2023/03/27 06:49:10;;;;;;;8.63;7.75;;;;;;;3.49;100.00;95747.94;4938589;29;20027;-66
2023/03/27 06:51:35;;;;;;;3.33;3.10;;;;;;;3.55;100.00;95759.75;4952934;29;20031;-66
2023/03/27 06:54:03;;;;;;;3.90;3.60;;;;;;;3.55;100.00;95765.81;4950907;28;20111;-66
2023/03/27 06:56:29;;;;;;;5.68;5.18;;;;;;;3.56;100.00;95766.63;4939836;29;20061;-66
2023/03/27 06:58:55;;;;;;;6.35;5.75;;;;;;;3.51;100.00;95768.69;4928470;29;20278;-66
2023/03/27 07:01:20;;;;;;;4.85;4.45;;;;;;;3.53;100.00;95772.03;4940730;29;20019;-67
2023/03/27 07:03:46;;;;;;;5.07;4.35;;;;;;;3.56;100.00;95777.03;4948431;29;20023;-66
2023/03/27 07:06:11;;;;;;;5.80;5.18;;;;;;;3.59;100.00;95769.03;4957825;29;20027;-66
2023/03/27 07:08:36;;;;;;;5.63;5.22;;;;;;;3.62;100.00;95771.44;4958125;29;20095;-66
2023/03/27 07:11:02;;;;;;;6.18;5.68;;;;;;;3.63;100.00;95773.09;4940754;29;20112;-66
2023/03/27 07:13:28;;;;;;;6.72;5.45;;;;;;;3.65;100.00;95786.03;4959048;29;20035;-66
2023/03/27 07:15:53;;;;;;;3.95;3.75;;;;;;;3.70;100.00;95797.84;4956583;29;20028;-66
2023/03/27 07:18:21;;;;;;;3.45;3.25;;;;;;;3.70;100.00;95794.38;4949250;29;20027;-66
2023/03/27 07:20:47;;;;;;;4.60;4.22;;;;;;;3.75;100.00;95801.91;4958747;29;20028;-66
2023/03/27 07:23:12;;;;;;;5.13;4.72;;;;;;;3.79;100.00;95812.06;4959419;29;20472;-66
2023/03/27 07:25:38;;;;;;;4.68;4.35;;;;;;;3.84;100.00;95814.34;4958989;29;20397;-66
2023/03/27 07:28:09;;;;;;;5.80;5.32;;;;;;;3.91;100.00;95812.19;4959075;29;20055;-66
2023/03/27 07:30:35;;;;;;;4.35;4.00;;;;;;;3.91;100.00;95817.41;4958858;29;20028;-66
2023/03/27 07:33:02;;;;;;;4.38;4.05;;;;;;;3.99;100.00;95817.75;4958910;29;20027;-66
2023/03/27 07:35:28;;;;;;;3.42;3.22;;;;;;;4.01;100.00;95821.91;4954294;29;20089;-66
2023/03/27 07:37:55;;;;;;;3.45;3.20;;;;;;;4.01;100.00;95814.09;4950262;29;20110;-66
2023/03/27 07:40:21;;;;;;;4.07;3.83;;;;;;;4.03;100.00;95813.16;4957870;29;20030;-66
2023/03/27 07:42:48;;;;;;;3.92;2.95;;;;;;;4.05;100.00;95819.13;4958816;29;20547;-66
2023/03/27 07:45:15;;;;;;;3.85;3.60;;;;;;;4.11;100.00;95822.16;4954432;29;20054;-66
2023/03/27 07:47:42;;;;;;;3.75;3.50;;;;;;;4.29;100.00;95822.75;4954456;29;20504;-66
2023/03/27 07:50:13;;;;;;;4.95;4.55;;;;;;;4.40;100.00;95824.63;4939952;29;20027;-66
2023/03/27 07:52:39;;;;;;;5.78;5.25;;;;;;;4.50;100.00;95822.25;4943226;29;20047;-66
2023/03/27 07:55:06;;;;;;;12.85;8.70;;;;;;;4.21;100.00;95834.63;4934656;29;20022;-66
2023/03/27 07:57:40;;;;;;;15.13;10.05;;;;;;;4.15;100.00;95848.88;4952547;29;20054;-66
2023/03/27 08:00:13;;;;;;;6.60;5.95;;;;;;;4.14;100.00;95845.41;4957691;29;20500;-66
2023/03/27 08:02:40;;;;;;;8.40;7.60;;;;;;;4.03;100.00;95847.88;4957745;29;20534;-66
2023/03/27 08:05:07;;;;;;;5.35;4.85;;;;;;;3.93;100.00;95845.03;4958041;29;20119;-66
2023/03/27 08:07:34;;;;;;;5.25;4.80;;;;;;;3.91;100.00;95857.31;4956577;28;20799;-66
2023/03/27 08:09:59;;;;;;;4.70;4.30;;;;;;;3.92;100.00;95853.78;4950657;29;20032;-66
2023/03/27 08:12:25;;;;;;;5.45;4.68;;;;;;;4.00;100.00;95854.13;4952077;29;20580;-66
2023/03/27 08:14:52;;;;;;;7.93;5.63;;;;;;;4.19;100.00;95860.78;4958013;29;20432;-66
2023/03/27 08:17:18;;;;;;;13.75;12.55;;;;;;;4.34;100.00;95865.94;4957824;29;20627;-66
2023/03/27 08:19:45;;;;;;;9.20;6.97;;;;;;;4.54;100.00;95841.16;4950308;29;20019;-66
2023/03/27 08:22:11;;;;;;;5.55;4.70;;;;;;;4.30;100.00;95844.44;4943181;29;20058;-66
2023/03/27 08:24:36;;;;;;;8.48;6.82;;;;;;;4.29;100.00;95848.81;4946588;29;20066;-67
2023/03/27 08:27:02;;;;;;;5.63;5.13;;;;;;;4.35;100.00;95863.22;4957458;29;20023;-66
2023/03/27 08:29:28;;;;;;;4.18;3.88;;;;;;;4.36;100.00;95858.84;4946723;29;20023;-66
2023/03/27 08:31:53;;;;;;;2.60;2.40;;;;;;;4.32;100.00;95857.38;4957213;29;20030;-66
2023/03/27 08:34:19;;;;;;;5.60;5.20;;;;;;;4.36;100.00;95867.50;4939543;29;20508;-66
2023/03/27 08:36:44;;;;;;;5.15;4.75;;;;;;;4.42;100.00;95874.09;4952638;29;20030;-66
2023/03/27 08:39:10;;;;;;;4.13;3.83;;;;;;;4.40;100.00;95876.78;4957725;29;20034;-66
2023/03/27 08:41:41;;;;;;;4.82;4.43;;;;;;;4.41;100.00;95882.84;4957499;29;20035;-66
2023/03/27 08:44:13;;;;;;;3.95;3.65;;;;;;;4.49;100.00;95884.97;4944558;29;20526;-66
2023/03/27 08:46:45;;;;;;;13.65;12.30;;;;;;;4.44;100.00;95893.94;4952051;29;20500;-66
2023/03/27 08:49:18;;;;;;;4.75;4.38;;;;;;;4.44;100.00;95893.06;4946384;29;20424;-66
2023/03/27 08:51:48;;;;;;;3.13;2.92;;;;;;;4.46;100.00;95903.41;4950255;29;20560;-66
2023/03/27 08:54:21;;;;;;;4.00;3.70;;;;;;;4.41;100.00;95916.75;4953261;29;20031;-66
2023/03/27 08:56:47;;;;;;;5.32;3.75;;;;;;;4.43;100.00;95917.47;4940608;29;20019;-66
2023/03/27 08:59:21;;;;;;;3.88;3.58;;;;;;;4.36;100.00;95924.03;4956581;29;20063;-67
2023/03/27 09:02:10;;;;;;;2.35;2.25;;;;;;;4.34;100.00;95912.88;4938417;29;20404;-66
2023/03/27 09:04:54;;;;;;;3.38;3.17;;;;;;;4.59;100.00;95927.75;4896824;29;20397;-66
2023/03/27 09:07:26;;;;;;;2.00;1.90;;;;;;;4.69;100.00;95921.00;4941430;29;20050;-66
2023/03/27 09:09:58;;;;;;;6.13;2.85;;;;;;;4.75;100.00;95927.56;4957170;29;20503;-66
2023/03/27 09:12:47;;;;;;;3.10;2.90;;;;;;;4.95;100.00;95934.13;4944755;29;20027;-66
2023/03/27 09:15:17;;;;;;;2.33;2.20;;;;;;;5.12;100.00;95933.00;4948980;29;20102;-66
2023/03/27 09:17:55;;;;;;;1.98;1.88;;;;;;;5.25;100.00;95938.22;4951948;29;20063;-66
2023/03/27 09:20:33;;;;;;;2.20;2.10;;;;;;;5.52;100.00;95947.72;4942437;29;20073;-66
2023/03/27 09:23:11;;;;;;;2.70;2.50;;;;;;;5.59;100.00;95946.41;4946357;29;20042;-67
2023/03/27 09:25:40;;;;;;;3.15;2.95;;;;;;;5.71;100.00;95931.66;4954236;29;20094;-66
2023/03/27 09:28:16;;;;;;;2.40;2.30;;;;;;;6.37;100.00;95933.19;4939077;29;20023;-66
2023/03/27 09:30:42;;;;;;;2.25;2.15;;;;;;;6.50;100.00;95938.38;4943257;29;20039;-67
2023/03/27 09:33:10;;;;;;;1.98;1.77;;;;;;;6.38;100.00;95949.75;4956963;29;20038;-66
2023/03/27 09:35:37;;;;;;;12.63;11.35;;;;;;;5.99;100.00;95945.41;4955640;29;20023;-66
2023/03/27 09:38:20;;;;;;;4.30;4.00;;;;;;;5.80;100.00;95934.56;4956299;29;20115;-66
2023/03/27 09:40:55;;;;;;;1.58;1.55;;;;;;;5.71;99.38;95943.88;4950717;29;20181;-66
2023/03/27 09:43:26;;;;;;;1.50;1.50;;;;;;;5.65;97.75;95952.97;4937909;29;20118;-68
2023/03/27 09:45:53;;;;;;;2.05;1.95;;;;;;;5.81;99.88;95968.44;4938042;29;20271;-67
2023/03/27 09:48:33;;;;;;;2.10;2.00;;;;;;;5.54;100.00;95964.16;4946561;29;20051;-66
2023/03/27 09:50:58;;;;;;;2.53;2.42;;;;;;;5.56;100.00;95958.81;4955887;29;20031;-66
2023/03/27 09:53:26;;;;;;;1.90;1.80;;;;;;;5.45;100.00;95967.38;4938796;29;20058;-66
2023/03/27 09:55:59;;;;;;;1.98;1.92;;;;;;;5.42;100.00;95973.66;4947114;29;20059;-66
2023/03/27 09:58:27;;;;;;;3.15;2.83;;;;;;;5.28;100.00;95968.53;4949937;29;20102;-66
2023/03/27 10:01:15;;;;;;;7.05;4.53;;;;;;;5.23;100.00;95978.44;4956241;29;20562;-66
2023/03/27 10:03:47;;;;;;;4.80;4.30;;;;;;;5.12;100.00;95993.03;4948770;29;20065;-66
2023/03/27 10:06:23;;;;;;;3.88;3.45;;;;;;;5.22;100.00;95993.25;4954933;29;20587;-66
2023/03/27 10:08:49;;;;;;;8.43;7.78;;;;;;;4.88;100.00;96001.50;4945780;29;20034;-66
2023/03/27 10:11:21;;;;;;;4.65;4.35;;;;;;;4.68;100.00;96005.41;4938082;29;20016;-66
2023/03/27 10:13:49;;;;;;;4.40;4.10;;;;;;;4.61;100.00;96004.09;4947578;29;20558;-66
2023/03/27 10:16:17;;;;;;;3.72;3.53;;;;;;;4.78;100.00;96007.41;4939862;29;20658;-65
2023/03/27 10:18:55;;;;;;;4.10;3.80;;;;;;;4.70;100.00;96007.91;4947774;29;20054;-66
2023/03/27 10:21:38;;;;;;;3.20;3.00;;;;;;;4.65;100.00;96010.81;4950236;29;20034;-65
2023/03/27 10:24:18;;;;;;;4.35;4.05;;;;;;;4.62;100.00;96004.97;4939589;29;20110;-65
2023/03/27 10:26:47;;;;;;;5.82;5.38;;;;;;;4.65;100.00;96020.41;4955618;29;20428;-67
2023/03/27 10:29:25;;;;;;;3.42;3.13;;;;;;;4.67;100.00;96029.81;4947111;28;20407;-65
2023/03/27 10:31:57;;;;;;;3.75;3.45;;;;;;;4.63;100.00;96023.09;4953505;29;20111;-65
2023/03/27 10:34:36;;;;;;;3.17;2.83;;;;;;;4.66;100.00;96022.94;4948381;29;20710;-65
2023/03/27 10:37:18;;;;;;;2.67;2.47;;;;;;;4.67;100.00;96028.97;4959467;29;20027;-66
2023/03/27 10:39:44;;;;;;;2.60;2.40;;;;;;;4.62;100.00;96031.03;4959667;29;20023;-65
2023/03/27 10:42:13;;;;;;;3.70;2.58;;;;;;;4.72;100.00;96032.13;4960039;29;20079;-65
2023/03/27 10:44:40;;;;;;;3.38;3.17;;;;;;;4.90;100.00;96044.94;4959871;29;20030;-66
2023/03/27 10:47:17;;;;;;;3.05;2.85;;;;;;;4.91;100.00;96050.06;4959356;29;20054;-66
2023/03/27 10:50:21;;;;;;;3.78;3.08;;;;;;;4.86;100.00;96054.72;4949920;29;20038;-65
2023/03/27 10:53:02;;;;;;;2.47;2.30;;;;;;;4.68;100.00;96059.34;4960112;29;20031;-66
2023/03/27 10:55:33;;;;;;;2.40;2.30;;;;;;;4.77;100.00;96060.53;4958281;29;20067;-65
2023/03/27 10:58:12;;;;;;;3.13;2.95;;;;;;;4.71;100.00;96054.78;4953566;29;20027;-66
2023/03/27 11:00:42;;;;;;;3.05;2.85;;;;;;;4.75;100.00;96058.00;4959685;29;20059;-65
2023/03/27 11:03:29;;;;;;;6.32;5.70;;;;;;;4.85;100.00;96068.69;4946964;29;20023;-66
2023/03/27 11:05:57;;;;;;;27.75;14.80;;;;;;;4.73;100.00;96067.69;4957963;29;20090;-65
2023/03/27 11:08:30;;;;;;;9.55;7.65;;;;;;;4.75;100.00;96075.44;4959688;29;20027;-66
2023/03/27 11:11:03;;;;;;;5.90;5.40;;;;;;;4.85;100.00;96079.13;4959002;29;20023;-66
2023/03/27 11:13:32;;;;;;;12.13;9.75;;;;;;;4.86;100.00;96081.66;4954092;29;20022;-66
2023/03/27 11:16:19;;;;;;;5.82;5.32;;;;;;;4.75;100.00;96081.47;4948790;29;20027;-66
2023/03/27 11:18:52;;;;;;;18.95;13.27;;;;;;;4.69;100.00;96087.09;4959417;29;20023;-66
2023/03/27 11:21:29;;;;;;;6.38;4.82;;;;;;;4.83;100.00;96094.03;4949834;29;20034;-66
2023/03/27 11:23:57;;;;;;;6.82;6.15;;;;;;;5.14;100.00;96100.78;4957928;29;20640;-66
2023/03/27 11:26:36;;;;;;;10.55;9.43;;;;;;;5.22;100.00;96102.06;4957668;29;20023;-66
2023/03/27 11:29:24;;;;;;;8.27;6.68;;;;;;;5.04;100.00;96109.28;4956794;29;20094;-66
2023/03/27 11:31:54;;;;;;;6.45;5.85;;;;;;;4.96;100.00;96107.16;4959033;29;20054;-66
2023/03/27 11:34:33;;;;;;;4.57;4.18;;;;;;;4.86;100.00;96106.91;4951079;29;20039;-66
2023/03/27 11:37:03;;;;;;;4.00;3.70;;;;;;;5.15;100.00;96110.28;4958372;29;20039;-66
2023/03/27 11:39:35;;;;;;;3.40;2.85;;;;;;;5.04;100.00;96112.75;4958688;29;20015;-66
2023/03/27 11:42:12;;;;;;;2.60;2.40;;;;;;;5.00;100.00;96116.50;4945400;29;20059;-65
2023/03/27 11:44:37;;;;;;;3.45;3.25;;;;;;;4.87;100.00;96132.91;4953166;29;20051;-66
2023/03/27 11:47:09;;;;;;;4.05;3.53;;;;;;;4.69;100.00;96126.22;4953160;29;20093;-66